createdAt,value
2016-03-22T00:00:04.670Z,6.92
2016-03-22T00:01:04.704Z,6.86
2016-03-22T00:02:04.754Z,6.89
2016-03-22T00:03:04.725Z,6.87
2016-03-22T00:04:04.950Z,6.92
2016-03-22T00:05:04.731Z,6.86
2016-03-22T00:06:17.503Z,6.87
2016-03-22T00:07:04.800Z,6.9
2016-03-22T00:08:24.007Z,6.92
2016-03-22T00:09:04.835Z,6.82
2016-03-22T00:10:04.853Z,6.83
2016-03-22T00:11:04.841Z,6.83
2016-03-22T00:12:04.844Z,6.85
2016-03-22T00:13:04.894Z,6.82
2016-03-22T00:14:17.616Z,6.85
2016-03-22T00:15:11.183Z,6.87
2016-03-22T00:16:04.964Z,6.8
2016-03-22T00:17:17.703Z,6.85
2016-03-22T00:18:30.660Z,6.87
2016-03-22T00:19:05.003Z,6.86
2016-03-22T00:20:04.990Z,6.89
2016-03-22T00:21:05.008Z,6.92
2016-03-22T00:22:05.058Z,6.95
2016-03-22T00:23:05.045Z,6.89
2016-03-22T00:24:05.048Z,6.93
2016-03-22T00:25:11.381Z,6.9
2016-03-22T00:26:05.084Z,6.9
2016-03-22T00:27:05.149Z,6.95
2016-03-22T00:28:17.904Z,6.95
2016-03-22T00:29:17.892Z,6.97
2016-03-22T00:30:17.909Z,6.97
2016-03-22T00:31:05.175Z,6.95
2016-03-22T00:32:05.209Z,6.9
2016-03-22T00:33:11.480Z,6.92
2016-03-22T00:34:06.655Z,6.87
2016-03-22T00:35:24.469Z,6.7
2016-03-22T00:36:05.266Z,6.62
2016-03-22T00:37:05.269Z,6.59
2016-03-22T00:38:06.760Z,6.59
2016-03-22T00:39:05.322Z,6.53
2016-03-22T00:40:18.046Z,6.47
2016-03-22T00:41:11.626Z,6.44
2016-03-22T00:42:05.345Z,6.53
2016-03-22T00:43:18.101Z,6.47
2016-03-22T00:44:05.398Z,6.49
2016-03-22T00:45:18.168Z,6.56
2016-03-22T00:46:05.418Z,6.5
2016-03-22T00:47:05.452Z,6.47
2016-03-22T00:48:06.067Z,6.53
2016-03-22T00:49:05.489Z,6.57
2016-03-22T00:50:12.370Z,6.56
2016-03-22T00:51:05.510Z,6.56
2016-03-22T00:52:05.512Z,6.46
2016-03-22T00:53:18.283Z,6.36
2016-03-22T00:54:05.564Z,6.29
2016-03-22T00:55:24.633Z,6.35
2016-03-22T00:56:05.633Z,6.17
2016-03-22T00:57:05.620Z,6.22
2016-03-22T00:58:05.606Z,6.16
2016-03-22T00:59:05.641Z,6.25
2016-03-22T01:00:06.287Z,6.19
2016-03-22T01:01:05.694Z,6.16
2016-03-22T01:02:05.696Z,6.06
2016-03-22T01:03:05.713Z,5.92
2016-03-22T01:04:05.733Z,5.8
2016-03-22T01:05:18.488Z,5.79
2016-03-22T01:06:12.663Z,5.67
2016-03-22T01:07:25.008Z,5.67
2016-03-22T01:08:05.774Z,5.65
2016-03-22T01:09:31.483Z,5.73
2016-03-22T01:10:06.063Z,5.65
2016-03-22T01:11:05.845Z,5.72
2016-03-22T01:12:05.848Z,5.72
2016-03-22T01:13:11.478Z,5.58
2016-03-22T01:14:18.622Z,5.61
2016-03-22T01:15:05.919Z,5.61
2016-03-22T01:16:25.174Z,5.62
2016-03-22T01:17:05.924Z,5.62
2016-03-22T01:18:05.942Z,5.51
2016-03-22T01:19:05.976Z,5.56
2016-03-22T01:20:06.072Z,5.55
2016-03-22T01:21:06.012Z,5.55
2016-03-22T01:22:06.000Z,5.52
2016-03-22T01:23:12.318Z,5.54
2016-03-22T01:24:06.052Z,5.51
2016-03-22T01:25:06.054Z,5.49
2016-03-22T01:26:25.295Z,5.52
2016-03-22T01:27:06.092Z,5.51
2016-03-22T01:28:25.362Z,5.49
2016-03-22T01:29:06.128Z,5.58
2016-03-22T01:30:31.805Z,5.46
2016-03-22T01:31:15.730Z,5.54
2016-03-22T01:32:15.717Z,5.52
2016-03-22T01:33:28.547Z,5.55
2016-03-22T01:34:15.769Z,5.54
2016-03-22T01:35:15.772Z,5.59
2016-03-22T01:36:15.790Z,5.62
2016-03-22T01:37:15.871Z,5.55
2016-03-22T01:38:15.810Z,5.52
2016-03-22T01:39:15.861Z,5.49
2016-03-22T01:40:15.863Z,5.55
2016-03-22T01:41:15.913Z,5.61
2016-03-22T01:42:28.634Z,5.55
2016-03-22T01:43:28.637Z,5.52
2016-03-22T01:44:41.562Z,5.52
2016-03-22T01:45:15.954Z,5.56
2016-03-22T01:46:47.238Z,5.54
2016-03-22T01:47:15.959Z,5.49
2016-03-22T01:48:15.994Z,5.58
2016-03-22T01:49:15.996Z,5.55
2016-03-22T01:50:16.031Z,5.55
2016-03-22T01:51:16.034Z,5.61
2016-03-22T01:52:22.583Z,5.55
2016-03-22T01:53:16.070Z,5.56
2016-03-22T01:54:16.135Z,5.54
2016-03-22T01:55:16.091Z,5.49
2016-03-22T01:56:16.156Z,5.47
2016-03-22T01:57:16.124Z,5.37
2016-03-22T01:58:16.097Z,5.38
2016-03-22T01:59:16.118Z,5.4
2016-03-22T02:00:16.123Z,5.4
2016-03-22T02:01:16.143Z,5.44
2016-03-22T02:02:16.120Z,5.55
2016-03-22T02:03:16.148Z,5.55
2016-03-22T02:04:16.162Z,5.56
2016-03-22T02:05:16.175Z,5.58
2016-03-22T02:06:22.469Z,5.58
2016-03-22T02:07:16.234Z,5.49
2016-03-22T02:08:16.236Z,5.47
2016-03-22T02:09:16.361Z,5.33
2016-03-22T02:10:16.237Z,5.29
2016-03-22T02:11:22.520Z,5.28
2016-03-22T02:12:16.240Z,5.26
2016-03-22T02:13:29.022Z,5.2
2016-03-22T02:14:16.305Z,5.22
2016-03-22T02:15:16.308Z,5.28
2016-03-22T02:16:16.340Z,5.25
2016-03-22T02:17:16.343Z,5.25
2016-03-22T02:18:17.846Z,5.25
2016-03-22T02:19:16.364Z,5.23
2016-03-22T02:20:16.445Z,5.19
2016-03-22T02:21:16.386Z,5.2
2016-03-22T02:22:17.825Z,5.16
2016-03-22T02:23:16.422Z,5.16
2016-03-22T02:24:16.456Z,5.18
2016-03-22T02:25:16.458Z,5.16
2016-03-22T02:26:35.696Z,5.1
2016-03-22T02:27:16.480Z,5.04
2016-03-22T02:28:16.513Z,5.07
2016-03-22T02:29:16.516Z,5.01
2016-03-22T02:30:17.946Z,5.01
2016-03-22T02:31:17.963Z,5.05
2016-03-22T02:32:16.545Z,5.07
2016-03-22T02:33:19.594Z,5.07
2016-03-22T02:34:16.596Z,5.01
2016-03-22T02:35:17.210Z,5.1
2016-03-22T02:36:16.618Z,5.15
2016-03-22T02:37:16.636Z,5.18
2016-03-22T02:38:16.654Z,5.12
2016-03-22T02:39:16.767Z,5.19
2016-03-22T02:40:16.722Z,5.13
2016-03-22T02:41:16.710Z,5.13
2016-03-22T02:42:16.712Z,5.13
2016-03-22T02:43:17.355Z,5.01
2016-03-22T02:44:16.796Z,5.07
2016-03-22T02:45:16.767Z,5.07
2016-03-22T02:46:29.597Z,5.02
2016-03-22T02:47:16.788Z,5.01
2016-03-22T02:48:42.463Z,5.05
2016-03-22T02:49:16.841Z,5.02
2016-03-22T02:50:16.859Z,5.05
2016-03-22T02:51:16.846Z,5.1
2016-03-22T02:52:16.927Z,5.15
2016-03-22T02:53:16.883Z,5.13
2016-03-22T02:54:16.916Z,5.22
2016-03-22T02:55:16.919Z,5.26
2016-03-22T02:56:29.719Z,5.28
2016-03-22T02:57:23.222Z,5.4
2016-03-22T02:58:16.974Z,5.41
2016-03-22T02:59:36.180Z,5.46
2016-03-22T03:00:20.041Z,5.46
2016-03-22T03:01:20.138Z,5.46
2016-03-22T03:02:20.094Z,5.52
2016-03-22T03:03:20.737Z,5.47
2016-03-22T03:04:20.131Z,5.41
2016-03-22T03:05:20.118Z,5.49
2016-03-22T03:06:20.152Z,5.55
2016-03-22T03:07:20.154Z,5.47
2016-03-22T03:08:20.204Z,5.58
2016-03-22T03:09:26.457Z,5.49
2016-03-22T03:10:20.209Z,5.56
2016-03-22T03:11:20.228Z,5.58
2016-03-22T03:12:20.418Z,5.51
2016-03-22T03:13:20.280Z,5.55
2016-03-22T03:14:20.345Z,5.52
2016-03-22T03:15:20.286Z,5.52
2016-03-22T03:16:20.350Z,5.54
2016-03-22T03:17:33.057Z,5.64
2016-03-22T03:18:33.090Z,5.51
2016-03-22T03:19:39.546Z,5.54
2016-03-22T03:20:20.409Z,5.59
2016-03-22T03:21:20.380Z,5.55
2016-03-22T03:22:20.397Z,5.59
2016-03-22T03:23:20.432Z,5.56
2016-03-22T03:24:26.700Z,5.55
2016-03-22T03:25:20.437Z,5.59
2016-03-22T03:26:39.737Z,5.51
2016-03-22T03:27:20.552Z,5.59
2016-03-22T03:28:46.163Z,5.64
2016-03-22T03:29:20.558Z,5.56
2016-03-22T03:30:21.951Z,5.61
2016-03-22T03:31:20.547Z,5.59
2016-03-22T03:32:33.331Z,5.61
2016-03-22T03:33:20.584Z,5.59
2016-03-22T03:34:20.571Z,5.69
2016-03-22T03:35:20.605Z,5.62
2016-03-22T03:36:20.607Z,5.69
2016-03-22T03:37:20.657Z,5.69
2016-03-22T03:38:20.660Z,5.67
2016-03-22T03:39:33.397Z,5.64
2016-03-22T03:40:20.712Z,5.64
2016-03-22T03:41:20.714Z,5.64
2016-03-22T03:42:20.765Z,5.65
2016-03-22T03:43:20.720Z,5.56
2016-03-22T03:44:20.801Z,5.56
2016-03-22T03:45:20.772Z,5.51
2016-03-22T03:46:20.790Z,5.62
2016-03-22T03:47:20.778Z,5.61
2016-03-22T03:48:20.828Z,5.54
2016-03-22T03:49:27.689Z,5.51
2016-03-22T03:50:20.832Z,5.55
2016-03-22T03:51:20.867Z,5.62
2016-03-22T03:52:20.885Z,5.59
2016-03-22T03:53:20.919Z,5.52
2016-03-22T03:54:20.891Z,5.54
2016-03-22T03:55:20.971Z,5.47
2016-03-22T03:56:33.677Z,5.59
2016-03-22T03:57:21.024Z,5.55
2016-03-22T03:58:20.979Z,5.62
2016-03-22T03:59:20.997Z,5.59
2016-03-22T04:00:21.000Z,5.54
2016-03-22T04:01:21.034Z,5.51
2016-03-22T04:02:21.052Z,5.52
2016-03-22T04:03:33.774Z,5.54
2016-03-22T04:04:21.088Z,5.58
2016-03-22T04:05:21.107Z,5.61
2016-03-22T04:06:21.110Z,5.55
2016-03-22T04:07:21.097Z,5.55
2016-03-22T04:08:27.381Z,5.61
2016-03-22T04:09:21.149Z,5.55
2016-03-22T04:10:33.901Z,5.62
2016-03-22T04:11:21.170Z,5.62
2016-03-22T04:12:21.204Z,5.59
2016-03-22T04:13:28.082Z,5.64
2016-03-22T04:14:27.694Z,5.59
2016-03-22T04:15:21.228Z,5.67
2016-03-22T04:16:21.246Z,5.62
2016-03-22T04:17:34.014Z,5.67
2016-03-22T04:18:21.298Z,5.67
2016-03-22T04:19:46.989Z,5.62
2016-03-22T04:20:30.881Z,5.65
2016-03-22T04:21:50.104Z,5.72
2016-03-22T04:22:32.341Z,5.72
2016-03-22T04:23:56.593Z,5.61
2016-03-22T04:24:46.768Z,5.65
2016-03-22T04:26:06.177Z,5.59
2016-03-22T04:26:53.227Z,5.64
2016-03-22T04:27:40.557Z,5.65
2016-03-22T04:28:59.763Z,5.7
2016-03-22T04:29:40.578Z,5.7
2016-03-22T04:31:43.818Z,5.61
2016-03-22T04:31:56.458Z,5.72
2016-03-22T04:33:02.742Z,5.58
2016-03-22T04:33:56.527Z,5.59
2016-03-22T04:35:09.201Z,5.67
2016-03-22T04:35:56.516Z,5.62
2016-03-22T04:36:56.487Z,5.59
2016-03-22T04:37:56.474Z,5.7
2016-03-22T04:39:15.746Z,5.65
2016-03-22T04:39:56.387Z,5.69
2016-03-22T04:41:22.220Z,5.65
2016-03-22T04:41:56.563Z,5.67
2016-03-22T04:43:59.179Z,5.59
2016-03-22T04:44:11.681Z,5.67
2016-03-22T04:45:11.652Z,5.61
2016-03-22T04:46:11.671Z,5.61
2016-03-22T04:47:17.923Z,5.62
2016-03-22T04:48:17.926Z,5.59
2016-03-22T04:49:30.898Z,5.59
2016-03-22T04:50:31.009Z,5.54
2016-03-22T04:51:11.731Z,5.55
2016-03-22T04:52:40.500Z,5.61
2016-03-22T04:53:14.970Z,5.64
2016-03-22T04:55:29.882Z,5.62
2016-03-22T04:56:30.151Z,5.59
2016-03-22T04:57:30.075Z,5.65
2016-03-22T04:58:42.828Z,5.69
2016-03-22T04:59:42.846Z,5.69
2016-03-22T05:00:30.193Z,5.69
2016-03-22T05:01:49.352Z,5.72
2016-03-22T05:02:30.166Z,5.72
2016-03-22T05:03:30.169Z,5.69
2016-03-22T05:04:30.203Z,5.72
2016-03-22T05:05:30.378Z,5.65
2016-03-22T05:06:42.974Z,5.67
2016-03-22T05:07:42.993Z,5.64
2016-03-22T05:08:30.277Z,5.69
2016-03-22T05:09:56.013Z,5.64
2016-03-22T05:10:30.282Z,5.58
2016-03-22T05:11:30.301Z,5.67
2016-03-22T05:12:43.053Z,5.64
2016-03-22T05:13:30.337Z,5.61
2016-03-22T05:14:56.012Z,5.62
2016-03-22T05:15:39.998Z,5.61
2016-03-22T05:17:05.674Z,5.64
2016-03-22T05:18:15.242Z,5.62
2016-03-22T05:18:49.585Z,5.67
2016-03-22T05:20:52.184Z,5.59
2016-03-22T05:21:24.062Z,5.62
2016-03-22T05:22:04.843Z,5.65
2016-03-22T05:24:01.848Z,5.65
2016-03-22T05:24:17.507Z,5.64
2016-03-22T05:25:36.744Z,5.69
2016-03-22T05:26:23.763Z,5.7
2016-03-22T05:27:46.406Z,5.72
2016-03-22T05:28:33.456Z,5.79
2016-03-22T05:29:52.677Z,5.8
2016-03-22T05:31:02.274Z,5.77
2016-03-22T05:31:36.588Z,5.77
2016-03-22T05:34:11.034Z,5.87
2016-03-22T05:35:11.038Z,5.83
2016-03-22T05:36:20.618Z,5.77
2016-03-22T05:38:23.243Z,5.81
2016-03-22T05:39:01.399Z,5.73
2016-03-22T05:40:06.233Z,5.77
2016-03-22T05:41:01.585Z,5.79
2016-03-22T05:43:04.794Z,5.9
2016-03-22T05:43:43.062Z,5.81
2016-03-22T05:44:17.439Z,5.87
2016-03-22T05:46:32.461Z,5.81
2016-03-22T05:47:32.635Z,5.79
2016-03-22T05:49:35.250Z,5.79
2016-03-22T05:50:27.737Z,5.79
2016-03-22T05:50:47.705Z,5.81
2016-03-22T05:51:47.725Z,5.72
2016-03-22T05:53:00.493Z,5.69
2016-03-22T05:53:54.043Z,5.65
2016-03-22T05:55:07.076Z,5.64
2016-03-22T05:56:42.894Z,5.73
2016-03-22T05:57:52.490Z,5.7
2016-03-22T05:59:17.980Z,5.83
2016-03-22T06:00:27.577Z,5.76
2016-03-22T06:02:37.145Z,5.9
2016-03-22T06:03:21.038Z,5.94
2016-03-22T06:04:21.056Z,5.92
2016-03-22T06:06:23.859Z,6.02
2016-03-22T06:06:49.249Z,6.09
2016-03-22T06:07:36.486Z,6.13
2016-03-22T06:08:55.692Z,6.13
2016-03-22T06:09:42.804Z,6.25
2016-03-22T06:10:56.026Z,6.43
2016-03-22T06:11:42.841Z,6.53
2016-03-22T06:12:36.608Z,6.6
2016-03-22T06:13:36.597Z,6.6
2016-03-22T06:14:36.583Z,6.6
2016-03-22T06:15:36.617Z,6.52
2016-03-22T06:16:36.635Z,6.53
2016-03-22T06:17:36.653Z,6.56
2016-03-22T06:18:36.671Z,6.56
2016-03-22T06:19:36.674Z,6.62
2016-03-22T06:20:36.709Z,6.6
2016-03-22T06:21:36.930Z,6.6
2016-03-22T06:22:49.480Z,6.6
2016-03-22T06:23:36.748Z,6.74
2016-03-22T06:24:36.766Z,6.78
2016-03-22T06:25:36.832Z,6.96
2016-03-22T06:26:36.802Z,7.19
2016-03-22T06:27:36.821Z,7.36
2016-03-22T06:28:36.854Z,7.47
2016-03-22T06:29:36.843Z,7.58
2016-03-22T06:30:36.860Z,7.62
2016-03-22T06:31:49.629Z,7.75
2016-03-22T06:32:43.210Z,7.88
2016-03-22T06:34:02.712Z,7.84
2016-03-22T06:34:40.981Z,7.84
2016-03-22T06:36:56.221Z,8.16
2016-03-22T06:37:56.223Z,8.2
2016-03-22T06:38:56.914Z,8.24
2016-03-22T06:39:56.291Z,8.49
2016-03-22T06:40:56.278Z,8.64
2016-03-22T06:41:56.922Z,8.79
2016-03-22T06:42:56.439Z,8.75
2016-03-22T06:43:56.349Z,8.79
2016-03-22T06:44:56.336Z,8.72
2016-03-22T06:46:09.104Z,8.71
2016-03-22T06:46:56.981Z,8.79
2016-03-22T06:48:15.611Z,8.81
2016-03-22T06:48:59.502Z,8.86
2016-03-22T06:49:59.536Z,9.02
2016-03-22T06:50:59.554Z,8.95
2016-03-22T06:51:59.557Z,8.97
2016-03-22T06:52:59.591Z,9.37
2016-03-22T06:54:00.188Z,9.51
2016-03-22T06:55:06.113Z,9.44
2016-03-22T06:55:59.630Z,9.49
2016-03-22T06:56:59.633Z,9.45
2016-03-22T06:58:12.339Z,9.55
2016-03-22T06:59:05.936Z,9.81
2016-03-22T07:00:12.438Z,9.94
2016-03-22T07:00:59.723Z,10.28
2016-03-22T07:01:59.725Z,10.42
2016-03-22T07:02:59.774Z,10.34
2016-03-22T07:04:06.027Z,10.17
2016-03-22T07:05:06.061Z,9.66
2016-03-22T07:05:59.830Z,9.39
2016-03-22T07:06:59.848Z,9.16
2016-03-22T07:08:06.137Z,9.09
2016-03-22T07:09:12.702Z,8.96
2016-03-22T07:10:00.001Z,8.86
2016-03-22T07:11:00.020Z,8.79
2016-03-22T07:12:00.381Z,8.79
2016-03-22T07:13:00.026Z,8.64
2016-03-22T07:14:00.059Z,8.6
2016-03-22T07:15:00.000Z,8.64
2016-03-22T07:16:00.205Z,8.54
2016-03-22T07:17:06.505Z,8.52
2016-03-22T07:18:07.727Z,8.46
2016-03-22T07:19:01.463Z,8.38
2016-03-22T07:20:00.232Z,8.34
2016-03-22T07:21:00.093Z,8.38
2016-03-22T07:22:00.252Z,8.26
2016-03-22T07:23:00.161Z,8.09
2016-03-22T07:24:00.179Z,8.06
2016-03-22T07:25:00.182Z,7.98
2016-03-22T07:26:00.201Z,7.83
2016-03-22T07:27:00.234Z,7.84
2016-03-22T07:28:00.268Z,7.84
2016-03-22T07:29:13.193Z,7.72
2016-03-22T07:30:01.743Z,7.7
2016-03-22T07:31:19.545Z,7.77
2016-03-22T07:32:13.045Z,7.84
2016-03-22T07:33:26.019Z,7.91
2016-03-22T07:34:13.065Z,7.96
2016-03-22T07:36:00.368Z,7.9
2016-03-22T07:37:00.403Z,8.01
2016-03-22T07:38:00.420Z,8.01
2016-03-22T07:39:00.423Z,8.02
2016-03-22T07:40:01.067Z,8.06
2016-03-22T07:41:01.053Z,8.14
2016-03-22T07:42:00.587Z,8.31
2016-03-22T07:43:01.105Z,8.34
2016-03-22T07:44:00.656Z,8.49
2016-03-22T07:45:00.549Z,8.56
2016-03-22T07:46:13.317Z,8.77
2016-03-22T07:47:13.305Z,8.87
2016-03-22T07:48:19.935Z,8.86
2016-03-22T07:49:00.638Z,9.02
2016-03-22T07:50:26.316Z,9.51
2016-03-22T07:51:00.659Z,9.58
2016-03-22T07:53:03.273Z,9.81
2016-03-22T07:53:15.916Z,9.7
2016-03-22T07:54:16.091Z,9.87
2016-03-22T07:55:28.687Z,9.95
2016-03-22T07:56:16.034Z,9.91
2016-03-22T07:57:15.990Z,9.91
2016-03-22T07:58:16.008Z,9.9
2016-03-22T07:59:22.385Z,9.81
2016-03-22T08:00:16.123Z,9.82
2016-03-22T08:01:16.095Z,9.82
2016-03-22T08:02:16.159Z,9.92
2016-03-22T08:03:16.146Z,9.84
2016-03-22T08:04:16.149Z,9.8
2016-03-22T08:05:16.417Z,9.64
2016-03-22T08:06:16.155Z,9.55
2016-03-22T08:07:16.361Z,9.73
2016-03-22T08:08:22.567Z,9.76
2016-03-22T08:09:16.350Z,9.84
2016-03-22T08:10:16.212Z,9.8
2016-03-22T08:11:16.418Z,9.94
2016-03-22T08:12:35.452Z,9.99
2016-03-22T08:13:29.064Z,9.97
2016-03-22T08:14:16.301Z,9.87
2016-03-22T08:15:16.319Z,9.67
2016-03-22T08:16:16.338Z,9.66
2016-03-22T08:17:16.356Z,9.77
2016-03-22T08:18:29.187Z,9.56
2016-03-22T08:19:16.393Z,9.64
2016-03-22T08:20:42.099Z,9.62
2016-03-22T08:21:25.991Z,9.55
2016-03-22T08:22:26.011Z,9.67
2016-03-22T08:23:26.060Z,9.82
2016-03-22T08:24:26.110Z,9.8
2016-03-22T08:25:25.955Z,9.73
2016-03-22T08:26:26.083Z,9.69
2016-03-22T08:27:26.321Z,9.7
2016-03-22T08:28:26.136Z,9.76
2016-03-22T08:29:26.155Z,9.63
2016-03-22T08:30:32.438Z,9.56
2016-03-22T08:31:26.190Z,9.42
2016-03-22T08:32:45.428Z,9.37
2016-03-22T08:33:26.321Z,9.34
2016-03-22T08:34:26.354Z,9.47
2016-03-22T08:35:26.592Z,9.47
2016-03-22T08:36:26.391Z,9.42
2016-03-22T08:37:26.551Z,9.48
2016-03-22T08:38:32.694Z,9.51
2016-03-22T08:39:26.384Z,9.49
2016-03-22T08:40:26.403Z,9.58
2016-03-22T08:41:26.498Z,9.55
2016-03-22T08:42:26.423Z,9.51
2016-03-22T08:43:39.254Z,9.63
2016-03-22T08:44:26.461Z,9.73
2016-03-22T08:45:39.213Z,9.76
2016-03-22T08:46:26.480Z,9.77
2016-03-22T08:47:27.906Z,9.85
2016-03-22T08:48:26.564Z,9.84
2016-03-22T08:49:39.302Z,9.69
2016-03-22T08:50:26.617Z,9.76
2016-03-22T08:51:26.588Z,9.82
2016-03-22T08:52:39.247Z,9.82
2016-03-22T08:53:26.609Z,9.84
2016-03-22T08:54:26.659Z,9.9
2016-03-22T08:55:27.130Z,10
2016-03-22T08:56:39.398Z,10.09
2016-03-22T08:57:26.699Z,10.09
2016-03-22T08:58:26.716Z,10.07
2016-03-22T08:59:39.469Z,9.8
2016-03-22T09:00:27.425Z,9.87
2016-03-22T09:01:26.788Z,9.72
2016-03-22T09:02:26.805Z,9.63
2016-03-22T09:03:26.807Z,9.58
2016-03-22T09:04:26.842Z,9.58
2016-03-22T09:05:26.876Z,9.42
2016-03-22T09:06:26.863Z,9.34
2016-03-22T09:07:39.659Z,9.26
2016-03-22T09:08:33.178Z,9.3
2016-03-22T09:09:26.947Z,9.39
2016-03-22T09:10:26.980Z,9.42
2016-03-22T09:11:26.998Z,9.34
2016-03-22T09:12:33.236Z,9.4
2016-03-22T09:13:27.036Z,9.49
2016-03-22T09:14:27.069Z,9.48
2016-03-22T09:15:27.056Z,9.45
2016-03-22T09:16:27.183Z,9.54
2016-03-22T09:17:27.108Z,9.45
2016-03-22T09:18:27.141Z,9.45
2016-03-22T09:19:33.630Z,9.48
2016-03-22T09:20:27.163Z,9.42
2016-03-22T09:21:46.384Z,9.49
2016-03-22T09:22:36.543Z,9.52
2016-03-22T09:23:30.312Z,9.55
2016-03-22T09:24:30.283Z,9.74
2016-03-22T09:25:36.645Z,9.72
2016-03-22T09:26:30.368Z,9.8
2016-03-22T09:27:43.088Z,9.92
2016-03-22T09:28:30.403Z,9.94
2016-03-22T09:29:30.421Z,10.06
2016-03-22T09:30:36.753Z,10.09
2016-03-22T09:31:43.177Z,10.12
2016-03-22T09:32:30.492Z,10.27
2016-03-22T09:33:30.339Z,10.25
2016-03-22T09:34:30.514Z,10.33
2016-03-22T09:35:30.531Z,10.23
2016-03-22T09:36:43.316Z,10.41
2016-03-22T09:37:30.553Z,10.43
2016-03-22T09:38:30.633Z,10.39
2016-03-22T09:39:30.605Z,10.53
2016-03-22T09:40:49.826Z,10.55
2016-03-22T09:41:32.064Z,10.51
2016-03-22T09:42:30.675Z,10.65
2016-03-22T09:43:43.413Z,10.51
2016-03-22T09:44:30.711Z,10.48
2016-03-22T09:45:30.762Z,10.39
2016-03-22T09:46:30.764Z,10.43
2016-03-22T09:47:30.767Z,10.43
2016-03-22T09:48:30.816Z,10.48
2016-03-22T09:49:30.835Z,10.46
2016-03-22T09:50:30.932Z,10.64
2016-03-22T09:51:30.949Z,10.64
2016-03-22T09:52:30.937Z,10.71
2016-03-22T09:53:31.502Z,10.75
2016-03-22T09:54:30.957Z,10.62
2016-03-22T09:55:43.789Z,10.49
2016-03-22T09:56:31.291Z,10.25
2016-03-22T09:57:43.716Z,10.24
2016-03-22T09:58:31.593Z,10.31
2016-03-22T09:59:31.034Z,10.49
2016-03-22T10:00:31.130Z,10.67
2016-03-22T10:01:31.070Z,10.49
2016-03-22T10:02:31.057Z,10.57
2016-03-22T10:03:43.826Z,10.65
2016-03-22T10:04:31.109Z,10.79
2016-03-22T10:05:31.129Z,10.9
2016-03-22T10:06:31.131Z,11.08
2016-03-22T10:07:31.180Z,11.33
2016-03-22T10:08:31.199Z,11.33
2016-03-22T10:09:31.217Z,11.25
2016-03-22T10:10:31.470Z,11.37
2016-03-22T10:11:31.284Z,11.52
2016-03-22T10:12:31.272Z,11.73
2016-03-22T10:13:31.509Z,11.85
2016-03-22T10:14:44.043Z,11.81
2016-03-22T10:15:31.342Z,11.91
2016-03-22T10:16:31.392Z,11.89
2016-03-22T10:17:31.379Z,11.91
2016-03-22T10:18:37.694Z,11.97
2016-03-22T10:19:31.635Z,11.89
2016-03-22T10:20:31.433Z,11.85
2016-03-22T10:21:37.749Z,11.91
2016-03-22T10:22:31.486Z,11.74
2016-03-22T10:23:31.488Z,11.63
2016-03-22T10:24:31.632Z,11.37
2016-03-22T10:25:31.557Z,10.98
2016-03-22T10:26:37.935Z,10.65
2016-03-22T10:27:37.843Z,10.49
2016-03-22T10:28:31.627Z,10.17
2016-03-22T10:29:31.662Z,10.05
2016-03-22T10:30:31.726Z,9.92
2016-03-22T10:31:31.698Z,9.84
2016-03-22T10:32:31.716Z,9.55
2016-03-22T10:33:31.703Z,9.48
2016-03-22T10:34:31.753Z,9.45
2016-03-22T10:35:31.756Z,9.4
2016-03-22T10:36:31.806Z,9.37
2016-03-22T10:37:31.823Z,9.49
2016-03-22T10:38:31.842Z,9.56
2016-03-22T10:39:31.907Z,9.64
2016-03-22T10:40:31.847Z,9.87
2016-03-22T10:41:31.864Z,9.97
2016-03-22T10:42:44.649Z,10.21
2016-03-22T10:43:31.917Z,10.28
2016-03-22T10:44:51.155Z,10.68
2016-03-22T10:45:32.580Z,10.77
2016-03-22T10:46:31.988Z,10.92
2016-03-22T10:47:44.741Z,10.95
2016-03-22T10:48:32.134Z,11.23
2016-03-22T10:49:32.044Z,11.37
2016-03-22T10:50:32.124Z,11.44
2016-03-22T10:51:32.095Z,11.23
2016-03-22T10:52:32.238Z,11.15
2016-03-22T10:53:32.147Z,11.02
2016-03-22T10:54:32.150Z,11.12
2016-03-22T10:55:38.482Z,11.13
2016-03-22T10:56:32.171Z,11.26
2016-03-22T10:57:44.815Z,11.13
2016-03-22T10:58:32.223Z,10.89
2016-03-22T10:59:32.243Z,10.8
2016-03-22T11:00:32.260Z,10.64
2016-03-22T11:01:32.450Z,10.61
2016-03-22T11:02:32.282Z,10.72
2016-03-22T11:03:45.079Z,10.67
2016-03-22T11:04:38.591Z,10.67
2016-03-22T11:05:51.540Z,10.79
2016-03-22T11:06:32.396Z,10.94
2016-03-22T11:07:32.394Z,11.12
2016-03-22T11:08:32.406Z,11.4
2016-03-22T11:09:32.422Z,11.63
2016-03-22T11:10:32.423Z,11.88
2016-03-22T11:11:32.470Z,11.95
2016-03-22T11:12:32.502Z,12.23
2016-03-22T11:13:38.768Z,12.35
2016-03-22T11:14:38.786Z,12.3
2016-03-22T11:15:32.538Z,12.3
2016-03-22T11:16:32.586Z,12.3
2016-03-22T11:17:38.870Z,12.07
2016-03-22T11:18:32.623Z,11.76
2016-03-22T11:19:32.639Z,11.41
2016-03-22T11:20:32.657Z,11.33
2016-03-22T11:21:32.660Z,11.07
2016-03-22T11:22:32.693Z,10.94
2016-03-22T11:23:32.712Z,10.72
2016-03-22T11:24:34.152Z,10.28
2016-03-22T11:25:32.732Z,10.13
2016-03-22T11:26:32.751Z,10.12
2016-03-22T11:27:32.895Z,10
2016-03-22T11:28:34.397Z,9.94
2016-03-22T11:29:45.556Z,9.58
2016-03-22T11:30:32.855Z,9.63
2016-03-22T11:31:32.984Z,9.7
2016-03-22T11:32:39.142Z,9.82
2016-03-22T11:33:32.911Z,10.03
2016-03-22T11:34:33.553Z,10.1
2016-03-22T11:35:32.931Z,10.31
2016-03-22T11:36:32.950Z,10.48
2016-03-22T11:37:33.015Z,10.64
2016-03-22T11:38:39.299Z,10.68
2016-03-22T11:39:33.051Z,10.82
2016-03-22T11:40:39.945Z,11.02
2016-03-22T11:41:33.088Z,11.27
2016-03-22T11:42:52.310Z,11.31
2016-03-22T11:43:33.109Z,11.18
2016-03-22T11:44:33.158Z,11.02
2016-03-22T11:45:33.161Z,10.71
2016-03-22T11:46:33.211Z,10.42
2016-03-22T11:47:33.213Z,10.36
2016-03-22T11:48:33.232Z,10.1
2016-03-22T11:49:52.453Z,9.95
2016-03-22T11:50:45.972Z,9.82
2016-03-22T11:51:58.990Z,9.72
2016-03-22T11:52:33.305Z,9.81
2016-03-22T11:53:33.917Z,9.84
2016-03-22T11:54:33.342Z,9.67
2016-03-22T11:55:33.345Z,9.77
2016-03-22T11:56:33.394Z,9.9
2016-03-22T11:57:46.162Z,9.67
2016-03-22T11:58:33.618Z,9.99
2016-03-22T11:59:33.481Z,9.91
2016-03-22T12:00:33.483Z,10.12
2016-03-22T12:01:33.517Z,10.41
2016-03-22T12:02:33.864Z,10.49
2016-03-22T12:03:33.506Z,10.33
2016-03-22T12:04:33.540Z,10.43
2016-03-22T12:05:33.762Z,10.34
2016-03-22T12:06:33.780Z,10.38
2016-03-22T12:07:33.611Z,10.2
2016-03-22T12:08:33.629Z,10.03
2016-03-22T12:09:46.367Z,10.21
2016-03-22T12:10:33.853Z,10.06
2016-03-22T12:11:33.669Z,10.02
2016-03-22T12:12:33.687Z,9.85
2016-03-22T12:13:33.736Z,9.9
2016-03-22T12:14:46.474Z,9.88
2016-03-22T12:15:33.758Z,9.85
2016-03-22T12:16:33.791Z,9.92
2016-03-22T12:17:33.794Z,9.95
2016-03-22T12:18:33.843Z,10
2016-03-22T12:19:40.113Z,10.05
2016-03-22T12:20:33.849Z,10.03
2016-03-22T12:21:46.618Z,9.94
2016-03-22T12:22:33.902Z,9.91
2016-03-22T12:23:33.920Z,10.06
2016-03-22T12:24:40.235Z,9.91
2016-03-22T12:25:40.238Z,9.72
2016-03-22T12:26:33.990Z,9.74
2016-03-22T12:27:33.992Z,9.58
2016-03-22T12:28:46.776Z,9.48
2016-03-22T12:29:46.795Z,9.56
2016-03-22T12:30:53.282Z,9.52
2016-03-22T12:31:34.067Z,9.47
2016-03-22T12:32:59.959Z,9.55
2016-03-22T12:33:40.400Z,9.62
2016-03-22T12:34:34.120Z,9.67
2016-03-22T12:35:46.890Z,9.49
2016-03-22T12:36:34.892Z,9.52
2016-03-22T12:37:59.910Z,9.49
2016-03-22T12:38:43.836Z,9.42
2016-03-22T12:39:43.869Z,9.37
2016-03-22T12:40:43.872Z,9.29
2016-03-22T12:41:43.875Z,9.27
2016-03-22T12:42:43.877Z,9.22
2016-03-22T12:43:45.317Z,9.13
2016-03-22T12:44:43.897Z,9.09
2016-03-22T12:45:56.761Z,9.12
2016-03-22T12:46:50.247Z,9.13
2016-03-22T12:48:03.203Z,9.02
2016-03-22T12:48:44.034Z,9.08
2016-03-22T12:50:09.740Z,9
2016-03-22T12:50:44.039Z,9.13
2016-03-22T12:51:44.074Z,8.99
2016-03-22T12:52:44.108Z,9.08
2016-03-22T12:53:50.376Z,8.97
2016-03-22T12:54:44.143Z,9.05
2016-03-22T12:55:44.163Z,8.97
2016-03-22T12:56:57.009Z,8.89
2016-03-22T12:57:44.183Z,8.93
2016-03-22T12:58:44.279Z,8.78
2016-03-22T12:59:56.970Z,8.56
2016-03-22T13:00:44.331Z,8.64
2016-03-22T13:01:57.912Z,8.61
2016-03-22T13:02:44.290Z,8.59
2016-03-22T13:03:44.293Z,8.49
2016-03-22T13:04:44.326Z,8.42
2016-03-22T13:05:44.923Z,8.34
2016-03-22T13:06:44.364Z,8.32
2016-03-22T13:07:57.121Z,8.17
2016-03-22T13:08:44.375Z,8.26
2016-03-22T13:09:44.408Z,8.18
2016-03-22T13:10:45.036Z,8.16
2016-03-22T13:11:57.194Z,8.35
2016-03-22T13:12:44.463Z,8.38
2016-03-22T13:14:03.747Z,8.52
2016-03-22T13:14:51.343Z,8.44
2016-03-22T13:16:15.814Z,8.42
2016-03-22T13:16:45.927Z,8.34
2016-03-22T13:17:44.538Z,8.42
2016-03-22T13:18:44.572Z,8.46
2016-03-22T13:19:44.591Z,8.56
2016-03-22T13:20:44.890Z,8.57
2016-03-22T13:21:45.237Z,8.39
2016-03-22T13:22:44.630Z,8.52
2016-03-22T13:23:44.664Z,8.53
2016-03-22T13:24:44.713Z,8.53
2016-03-22T13:25:57.434Z,8.39
2016-03-22T13:26:44.688Z,8.49
2016-03-22T13:27:44.737Z,8.39
2016-03-22T13:28:44.756Z,8.39